createdAt,value
2019-01-03T00:00:46.009Z,3.30
2019-01-03T00:03:27.847Z,2.97
2019-01-03T00:06:09.743Z,3.80
2019-01-03T00:08:54.558Z,3.10
2019-01-03T00:11:41.003Z,2.93
2019-01-03T00:14:19.927Z,2.67
2019-01-03T00:16:49.923Z,2.97
2019-01-03T00:19:31.750Z,4.43
2019-01-03T00:22:04.784Z,2.70
2019-01-03T00:24:37.481Z,2.43
2019-01-03T00:27:07.398Z,2.47
2019-01-03T00:29:46.496Z,1.93
2019-01-03T00:32:28.491Z,2.90
2019-01-03T00:35:14.577Z,1.70
2019-01-03T00:37:44.487Z,2.43
2019-01-03T00:40:17.041Z,2.87
2019-01-03T00:43:05.188Z,2.30
2019-01-03T00:48:43.062Z,9.47
2019-01-03T00:51:15.812Z,8.83
2019-01-03T00:54:01.789Z,9.10
2019-01-03T00:56:34.631Z,7.33
2019-01-03T00:59:04.597Z,4.67
2019-01-03T01:01:37.452Z,3.43
2019-01-03T01:04:13.087Z,2.37
2019-01-03T01:06:48.621Z,2.93
2019-01-03T01:09:34.506Z,3.97
2019-01-03T01:12:20.388Z,3.13
2019-01-03T01:14:52.965Z,2.07
2019-01-03T01:17:22.884Z,2.10
2019-01-03T01:20:09.159Z,2.13
2019-01-03T01:22:39.083Z,2.60
2019-01-03T01:25:15.182Z,2.27
2019-01-03T01:28:01.134Z,2.00
2019-01-03T01:30:31.041Z,2.27
2019-01-03T01:33:00.963Z,2.33
2019-01-03T01:35:36.865Z,2.40
2019-01-03T01:38:16.026Z,2.20
2019-01-03T01:40:51.741Z,1.80
2019-01-03T01:43:21.825Z,1.80
2019-01-03T01:45:54.261Z,2.03
2019-01-03T01:48:42.117Z,2.03
2019-01-03T01:51:28.192Z,2.13
2019-01-03T01:54:00.766Z,5.60
2019-01-03T01:56:42.515Z,1.80
2019-01-03T01:59:14.911Z,2.13
2019-01-03T02:01:47.699Z,2.23
2019-01-03T02:04:17.681Z,1.70
2019-01-03T02:06:47.667Z,1.97
2019-01-03T02:09:33.917Z,2.77
2019-01-03T02:12:06.489Z,1.83
2019-01-03T02:14:36.419Z,2.37
2019-01-03T02:17:21.537Z,1.67
2019-01-03T02:20:03.393Z,2.10
2019-01-03T02:22:48.148Z,2.27
2019-01-03T02:25:18.089Z,2.43
2019-01-03T02:27:48.068Z,2.07
2019-01-03T02:30:17.997Z,2.20
2019-01-03T02:32:53.645Z,1.50
2019-01-03T02:35:29.375Z,1.67
2019-01-03T02:38:08.096Z,1.80
2019-01-03T02:40:38.010Z,1.90
2019-01-03T02:43:19.935Z,1.80
2019-01-03T02:46:04.570Z,2.00
2019-01-03T02:48:50.594Z,1.83
2019-01-03T02:51:36.917Z,1.90
2019-01-03T02:54:21.856Z,1.83
2019-01-03T02:56:51.770Z,1.67
2019-01-03T02:59:38.298Z,1.90
2019-01-03T03:02:14.258Z,1.23
2019-01-03T03:04:56.116Z,2.10
2019-01-03T03:07:42.304Z,1.67
2019-01-03T03:10:24.193Z,1.40
2019-01-03T03:12:54.142Z,1.70
2019-01-03T03:15:27.001Z,1.47
2019-01-03T03:18:02.869Z,2.00
2019-01-03T03:20:50.333Z,1.37
2019-01-03T03:23:32.492Z,1.90
2019-01-03T03:26:05.116Z,1.47
2019-01-03T03:28:47.049Z,1.50
2019-01-03T03:31:19.747Z,1.67
2019-01-03T03:34:05.878Z,1.70
2019-01-03T03:36:52.384Z,1.80
2019-01-03T03:39:22.307Z,1.50
2019-01-03T03:42:01.262Z,1.63
2019-01-03T03:44:34.113Z,1.53
2019-01-03T03:47:10.143Z,1.50
2019-01-03T03:49:49.278Z,2.87
2019-01-03T03:52:19.233Z,1.97
2019-01-03T03:54:49.234Z,1.33
2019-01-03T03:57:21.999Z,1.83
2019-01-03T04:00:08.108Z,2.20
2019-01-03T04:02:41.114Z,1.90
2019-01-03T04:05:23.099Z,1.60
2019-01-03T04:07:58.921Z,1.70
2019-01-03T04:10:31.670Z,1.40
2019-01-03T04:13:04.555Z,1.80
2019-01-03T04:15:34.476Z,1.80
2019-01-03T04:18:04.455Z,1.70
2019-01-03T04:20:50.624Z,1.67
2019-01-03T04:23:20.652Z,1.63
2019-01-03T04:26:07.079Z,1.80
2019-01-03T04:28:53.264Z,1.40
2019-01-03T04:31:38.311Z,1.40
2019-01-03T04:34:20.418Z,1.17
2019-01-03T04:36:50.367Z,1.47
2019-01-03T04:39:23.147Z,1.50
2019-01-03T04:41:55.696Z,1.43
2019-01-03T04:44:31.691Z,1.20
2019-01-03T04:47:01.600Z,1.70
2019-01-03T04:49:43.488Z,1.27
2019-01-03T04:52:13.479Z,1.10
2019-01-03T04:54:43.381Z,1.50
2019-01-03T04:57:29.722Z,1.73
2019-01-03T04:59:59.703Z,1.50
2019-01-03T05:02:29.619Z,1.70
2019-01-03T05:05:11.359Z,1.50
2019-01-03T05:07:41.259Z,1.67
2019-01-03T05:10:27.578Z,1.90
2019-01-03T05:13:15.376Z,1.87
2019-01-03T05:16:03.382Z,3.13
2019-01-03T05:18:44.998Z,4.20
2019-01-03T05:21:30.163Z,4.23
2019-01-03T05:24:02.567Z,3.97
2019-01-03T05:26:32.474Z,3.13
2019-01-03T05:29:20.494Z,1.63
2019-01-03T05:31:50.413Z,1.87
2019-01-03T05:34:36.797Z,1.70
2019-01-03T05:37:21.903Z,1.97
2019-01-03T05:40:07.970Z,1.70
2019-01-03T05:42:46.582Z,1.83
2019-01-03T05:45:16.514Z,1.73
2019-01-03T05:48:02.488Z,2.00
2019-01-03T05:50:41.260Z,1.80
2019-01-03T05:53:11.267Z,1.73
2019-01-03T05:55:43.941Z,2.07
2019-01-03T05:58:16.586Z,1.77
2019-01-03T06:00:49.314Z,1.60
2019-01-03T06:03:25.217Z,1.83
2019-01-03T06:06:11.542Z,1.73
2019-01-03T06:08:50.531Z,1.97
2019-01-03T06:11:20.435Z,2.30
2019-01-03T06:13:56.059Z,2.97
2019-01-03T06:16:26.105Z,1.30
2019-01-03T06:19:12.599Z,2.40
2019-01-03T06:21:45.618Z,1.80
2019-01-03T06:24:32.052Z,2.03
2019-01-03T06:27:17.011Z,2.17
2019-01-03T06:30:02.055Z,2.23
2019-01-03T06:32:48.385Z,1.70
2019-01-03T06:35:30.326Z,2.30
2019-01-03T06:38:05.893Z,2.27
2019-01-03T06:40:47.923Z,2.37
2019-01-03T06:43:34.402Z,4.77
2019-01-03T06:46:20.675Z,2.33
2019-01-03T06:48:50.609Z,2.97
2019-01-03T06:51:36.742Z,2.37
2019-01-03T06:54:22.847Z,2.37
2019-01-03T06:57:09.306Z,1.83
2019-01-03T06:59:42.208Z,3.20
2019-01-03T07:02:14.928Z,3.20
2019-01-03T07:04:53.841Z,3.53
2019-01-03T07:07:39.994Z,5.13
2019-01-03T07:10:24.922Z,6.27
2019-01-03T07:13:09.559Z,3.83
2019-01-03T07:15:42.000Z,4.07
2019-01-03T07:18:14.440Z,4.00
2019-01-03T07:21:02.251Z,3.47
2019-01-03T07:23:32.262Z,2.87
2019-01-03T07:26:18.504Z,3.73
2019-01-03T07:29:00.355Z,3.33
2019-01-03T07:31:39.345Z,3.00
2019-01-03T07:34:21.181Z,2.50
2019-01-03T07:36:53.813Z,2.50
2019-01-03T07:39:29.511Z,2.57
2019-01-03T07:41:59.414Z,3.27
2019-01-03T07:44:41.087Z,2.53
2019-01-03T07:47:13.694Z,2.57
2019-01-03T07:49:43.671Z,2.43
2019-01-03T07:52:19.219Z,4.17
2019-01-03T07:54:54.642Z,2.30
2019-01-03T07:57:40.810Z,2.20
2019-01-03T08:00:10.899Z,3.07
2019-01-03T08:02:56.754Z,3.13
2019-01-03T08:05:29.391Z,3.10
2019-01-03T08:08:15.605Z,2.73
2019-01-03T08:11:01.641Z,2.40
2019-01-03T08:13:46.654Z,2.90
2019-01-03T08:16:28.696Z,3.33
2019-01-03T08:19:01.197Z,4.30
2019-01-03T08:21:33.830Z,4.03
2019-01-03T08:24:06.353Z,2.50
2019-01-03T08:26:42.151Z,2.00
2019-01-03T08:29:12.060Z,2.77
2019-01-03T08:31:50.594Z,3.53
2019-01-03T08:34:23.079Z,3.13
2019-01-03T08:37:01.843Z,2.83
2019-01-03T08:39:37.271Z,3.37
2019-01-03T08:42:19.033Z,2.90
2019-01-03T08:44:58.009Z,1.77
2019-01-03T08:47:46.066Z,3.67
2019-01-03T08:50:31.905Z,2.17
2019-01-03T08:53:18.366Z,2.83
2019-01-03T08:56:10.326Z,2.50
2019-01-03T08:58:40.247Z,1.80
2019-01-03T09:01:10.187Z,2.30
2019-01-03T09:03:45.950Z,1.87
2019-01-03T09:06:32.394Z,2.07
2019-01-03T09:09:04.864Z,2.07
2019-01-03T09:11:37.688Z,1.50
2019-01-03T09:14:13.295Z,1.87
2019-01-03T09:16:59.579Z,2.27
2019-01-03T09:19:29.661Z,1.93
2019-01-03T09:22:02.212Z,1.60
2019-01-03T09:24:41.085Z,2.03
2019-01-03T09:27:13.521Z,2.00
2019-01-03T09:29:55.613Z,1.90
2019-01-03T09:32:40.768Z,1.73
2019-01-03T09:35:10.685Z,1.80
2019-01-03T09:37:46.504Z,2.43
2019-01-03T09:40:18.895Z,2.00
2019-01-03T09:43:00.426Z,2.50
2019-01-03T09:45:28.693Z,1.77
2019-01-03T09:47:56.957Z,2.33
2019-01-03T09:50:25.298Z,3.20
2019-01-03T09:52:53.601Z,3.87
2019-01-03T09:55:22.036Z,5.03
2019-01-03T09:57:50.406Z,3.07
2019-01-03T10:00:18.767Z,2.60
2019-01-03T10:02:47.118Z,2.90
2019-01-03T10:05:15.415Z,4.17
2019-01-03T10:07:43.685Z,2.90
2019-01-03T10:10:11.965Z,3.23
2019-01-03T10:12:40.261Z,2.37
2019-01-03T10:15:08.527Z,3.10
2019-01-03T10:17:36.789Z,2.60
2019-01-03T10:20:07.488Z,1.77
2019-01-03T10:22:35.835Z,1.43
2019-01-03T10:25:04.901Z,0.90
2019-01-03T10:27:33.249Z,1.97
2019-01-03T10:30:01.589Z,2.27
2019-01-03T10:32:29.852Z,1.83
2019-01-03T10:34:58.951Z,2.77
2019-01-03T10:37:27.249Z,3.63
2019-01-03T10:39:55.559Z,1.80
2019-01-03T10:42:23.919Z,2.27
2019-01-03T10:44:52.313Z,2.50
2019-01-03T10:47:20.578Z,1.50
2019-01-03T10:49:48.856Z,1.93
2019-01-03T10:52:17.300Z,2.03
2019-01-03T10:54:45.630Z,2.33
2019-01-03T10:57:13.982Z,1.80
2019-01-03T10:59:42.264Z,2.23
2019-01-03T11:02:10.534Z,2.63
2019-01-03T11:04:38.836Z,2.57
2019-01-03T11:07:07.108Z,2.80
2019-01-03T11:09:35.368Z,1.70
2019-01-03T11:12:03.677Z,2.23
2019-01-03T11:14:31.951Z,2.60
2019-01-03T11:17:00.245Z,2.63
2019-01-03T11:19:28.561Z,2.43
2019-01-03T11:21:56.839Z,7.63
2019-01-03T11:24:25.146Z,3.17
2019-01-03T11:26:53.410Z,1.90
2019-01-03T11:29:21.677Z,5.83
2019-01-03T11:31:49.966Z,3.77
2019-01-03T11:34:18.261Z,2.50
2019-01-03T11:36:46.526Z,1.90
2019-01-03T11:39:14.828Z,1.90
2019-01-03T11:41:43.136Z,1.90
2019-01-03T11:44:11.414Z,1.47
2019-01-03T11:46:39.686Z,2.50
2019-01-03T11:49:07.982Z,2.10
2019-01-03T11:51:36.245Z,2.80
2019-01-03T11:54:04.531Z,1.47
2019-01-03T11:56:32.938Z,1.67
2019-01-03T11:59:01.296Z,2.30
2019-01-03T12:01:29.634Z,1.93
2019-01-03T12:03:57.910Z,2.20
2019-01-03T12:06:26.171Z,1.27
2019-01-03T12:08:54.465Z,1.30
2019-01-03T12:11:22.730Z,3.33
2019-01-03T12:13:50.981Z,1.70
2019-01-03T12:16:19.258Z,4.77
2019-01-03T12:18:47.513Z,2.00
2019-01-03T12:21:15.786Z,3.00
2019-01-03T12:23:44.131Z,3.97
2019-01-03T12:26:12.434Z,3.43
2019-01-03T12:28:40.707Z,2.07
2019-01-03T12:31:08.961Z,3.43
2019-01-03T12:33:37.266Z,9.37
2019-01-03T12:36:05.522Z,1.53
2019-01-03T12:38:33.867Z,1.40
2019-01-03T12:41:02.284Z,7.07
2019-01-03T12:43:30.621Z,1.77
2019-01-03T12:45:58.886Z,8.97
2019-01-03T12:48:27.225Z,2.00
2019-01-03T12:50:55.495Z,13.53
2019-01-03T12:53:23.764Z,15.17
2019-01-03T12:55:52.030Z,24.77
2019-01-03T12:58:20.288Z,3.67
2019-01-03T13:00:48.553Z,10.17
2019-01-03T13:03:16.829Z,6.43
2019-01-03T13:05:45.122Z,15.23
2019-01-03T13:08:13.380Z,7.80
2019-01-03T13:10:41.664Z,14.23
2019-01-03T13:13:10.039Z,2.57
2019-01-03T13:15:38.315Z,7.80
2019-01-03T13:18:06.586Z,7.70
2019-01-03T13:20:34.858Z,3.13
2019-01-03T13:23:03.188Z,4.73
2019-01-03T13:25:31.573Z,4.07
2019-01-03T13:27:59.843Z,1.80
2019-01-03T13:30:28.111Z,2.50
2019-01-03T13:32:56.421Z,4.13
2019-01-03T13:35:24.676Z,3.10
2019-01-03T13:37:52.945Z,3.80
2019-01-03T13:40:21.232Z,2.50
2019-01-03T13:42:49.489Z,2.70
2019-01-03T13:45:17.776Z,2.87
2019-01-03T13:47:46.135Z,2.40
2019-01-03T13:50:14.398Z,2.43
2019-01-03T13:52:42.668Z,1.73
2019-01-03T13:55:10.933Z,1.90
2019-01-03T13:57:39.238Z,2.53
2019-01-03T14:00:09.349Z,2.80
2019-01-03T14:02:37.628Z,3.60
2019-01-03T14:05:05.901Z,5.07
2019-01-03T14:07:34.173Z,5.77
2019-01-03T14:10:02.441Z,3.37
2019-01-03T14:12:30.731Z,9.00
2019-01-03T14:14:59.015Z,3.03
2019-01-03T14:17:27.288Z,2.40
2019-01-03T14:19:55.632Z,5.53
2019-01-03T14:22:23.911Z,8.87
2019-01-03T14:24:52.280Z,7.23
2019-01-03T14:27:20.960Z,2.53
2019-01-03T14:29:49.227Z,3.87
2019-01-03T14:32:17.501Z,8.10
2019-01-03T14:34:45.846Z,8.13
2019-01-03T14:37:14.189Z,27.63
2019-01-03T14:39:42.469Z,5.40
2019-01-03T14:42:10.750Z,8.30
2019-01-03T14:44:39.026Z,5.93
2019-01-03T14:47:07.330Z,3.87
2019-01-03T14:49:35.611Z,9.07
2019-01-03T14:52:03.955Z,6.33
2019-01-03T14:54:32.263Z,4.63
2019-01-03T14:57:00.615Z,5.57
2019-01-03T14:59:29.047Z,5.83
2019-01-03T15:01:57.404Z,8.23
2019-01-03T15:04:25.746Z,9.30
2019-01-03T15:06:54.020Z,4.53
2019-01-03T15:09:22.318Z,6.90
2019-01-03T15:11:50.600Z,9.97
2019-01-03T15:14:18.876Z,8.70
2019-01-03T15:16:47.173Z,10.80
2019-01-03T15:19:15.455Z,8.93
2019-01-03T15:21:43.797Z,6.83
2019-01-03T15:24:12.194Z,9.23
2019-01-03T15:26:40.564Z,5.97
2019-01-03T15:29:08.889Z,8.10
2019-01-03T15:31:37.202Z,6.90
2019-01-03T15:34:05.460Z,6.70
2019-01-03T15:36:33.739Z,7.53
2019-01-03T15:39:02.043Z,5.47
2019-01-03T15:41:30.301Z,8.80
2019-01-03T15:43:58.568Z,10.10
2019-01-03T15:46:26.887Z,7.90
2019-01-03T15:48:56.585Z,7.50
2019-01-03T15:51:44.744Z,8.00
2019-01-03T15:54:13.041Z,8.10
2019-01-03T15:56:41.387Z,11.87
2019-01-03T15:59:09.717Z,13.27
2019-01-03T16:01:38.024Z,12.63
2019-01-03T16:04:06.298Z,9.90
2019-01-03T16:06:34.561Z,9.20
2019-01-03T16:09:04.734Z,8.70
2019-01-03T16:11:33.035Z,7.37
2019-01-03T16:14:01.372Z,5.57
2019-01-03T16:16:29.681Z,6.53
2019-01-03T16:18:57.967Z,8.50
2019-01-03T16:21:26.307Z,6.50
2019-01-03T16:23:54.612Z,6.80
2019-01-03T16:26:22.891Z,6.20
2019-01-03T16:28:51.162Z,5.90
2019-01-03T16:31:19.542Z,6.20
2019-01-03T16:33:47.819Z,5.77
2019-01-03T16:36:16.137Z,7.10
2019-01-03T16:39:04.690Z,8.53
2019-01-03T16:41:33.057Z,7.47
2019-01-03T16:44:01.326Z,8.90
2019-01-03T16:46:29.610Z,5.73
2019-01-03T16:48:58.024Z,6.30
2019-01-03T16:51:26.289Z,5.60
2019-01-03T16:53:54.556Z,5.47
2019-01-03T16:56:22.839Z,6.20
2019-01-03T16:58:51.110Z,6.73
2019-01-03T17:01:19.493Z,6.47
2019-01-03T17:03:47.757Z,6.53
2019-01-03T17:06:16.035Z,7.23
2019-01-03T17:08:44.406Z,6.80
2019-01-03T17:11:12.678Z,7.30
2019-01-03T17:13:41.037Z,7.37
2019-01-03T17:16:09.332Z,8.57
2019-01-03T17:18:37.606Z,8.57
2019-01-03T17:21:05.889Z,10.20
2019-01-03T17:23:34.251Z,7.70
2019-01-03T17:26:02.527Z,7.17
2019-01-03T17:28:30.807Z,9.20
2019-01-03T17:30:59.106Z,7.20
2019-01-03T17:33:27.383Z,6.90
2019-01-03T17:36:08.029Z,6.90
2019-01-03T17:38:36.343Z,7.17
2019-01-03T17:41:04.613Z,6.60
2019-01-03T17:43:32.890Z,4.47
2019-01-03T17:46:01.171Z,4.97
2019-01-03T17:48:29.525Z,5.77
2019-01-03T17:50:57.806Z,7.00
2019-01-03T17:53:26.087Z,9.27
2019-01-03T17:55:54.481Z,5.97
2019-01-03T17:58:22.782Z,9.63
2019-01-03T18:00:51.059Z,8.13
2019-01-03T18:03:19.328Z,8.03
2019-01-03T18:05:47.597Z,8.17
2019-01-03T18:08:15.872Z,6.60
2019-01-03T18:10:44.153Z,8.03
2019-01-03T18:13:12.500Z,7.57
2019-01-03T18:15:40.798Z,7.73
2019-01-03T18:18:09.073Z,8.53
2019-01-03T18:20:37.345Z,6.50
2019-01-03T18:23:05.694Z,6.13
2019-01-03T18:25:33.998Z,7.43
2019-01-03T18:28:02.318Z,6.00
2019-01-03T18:30:30.597Z,5.00
2019-01-03T18:32:59.125Z,5.00
2019-01-03T18:35:27.427Z,4.77
2019-01-03T18:37:56.908Z,2.83
2019-01-03T18:40:25.401Z,4.07
2019-01-03T18:42:53.678Z,5.00
2019-01-03T18:45:21.960Z,4.93
2019-01-03T18:47:50.259Z,7.07
2019-01-03T18:50:20.260Z,5.00
2019-01-03T18:52:48.521Z,4.57
2019-01-03T18:55:16.892Z,5.97
2019-01-03T18:57:45.239Z,5.50
2019-01-03T19:00:13.586Z,5.90
2019-01-03T19:02:41.876Z,5.67
2019-01-03T19:05:10.153Z,5.03
2019-01-03T19:07:38.546Z,3.87
2019-01-03T19:10:09.411Z,5.13
2019-01-03T19:12:37.677Z,3.53
2019-01-03T19:15:08.096Z,4.23
2019-01-03T19:17:36.438Z,3.73
2019-01-03T19:20:08.177Z,3.40
2019-01-03T19:22:36.471Z,5.03
2019-01-03T19:25:08.005Z,5.30
2019-01-03T19:27:36.340Z,6.27
2019-01-03T19:30:08.123Z,5.00
2019-01-03T19:32:36.427Z,6.53
2019-01-03T19:35:06.711Z,6.40
2019-01-03T19:37:47.086Z,7.10
2019-01-03T19:40:15.353Z,5.17
2019-01-03T19:42:44.586Z,5.20
2019-01-03T19:45:13.235Z,5.10
2019-01-03T19:47:41.591Z,4.60
2019-01-03T19:50:12.594Z,4.30
2019-01-03T19:52:40.894Z,4.20
2019-01-03T19:55:09.181Z,4.30
2019-01-03T19:57:37.517Z,6.17
2019-01-03T20:00:12.011Z,4.50
2019-01-03T20:02:40.288Z,5.37
2019-01-03T20:05:08.821Z,4.70
2019-01-03T20:07:37.177Z,4.27
2019-01-03T20:10:08.693Z,3.60
2019-01-03T20:12:36.994Z,5.10
2019-01-03T20:15:08.277Z,5.50
2019-01-03T20:17:36.533Z,6.13
2019-01-03T20:20:06.587Z,5.67
2019-01-03T20:22:34.862Z,5.20
2019-01-03T20:25:03.139Z,7.40
2019-01-03T20:27:31.426Z,6.37
2019-01-03T20:29:59.702Z,6.93
2019-01-03T20:32:28.162Z,5.47
2019-01-03T20:34:56.442Z,7.10
2019-01-03T20:37:24.718Z,5.00
2019-01-03T20:39:53.034Z,6.13
2019-01-03T20:42:21.361Z,5.97
2019-01-03T20:44:49.637Z,4.60
2019-01-03T20:47:17.974Z,6.30
2019-01-03T20:49:46.254Z,4.10
2019-01-03T20:52:14.594Z,4.47
2019-01-03T20:54:42.858Z,4.40
2019-01-03T20:57:11.166Z,3.73
2019-01-03T20:59:39.441Z,4.57
2019-01-03T21:02:07.732Z,4.80
2019-01-03T21:04:36.099Z,4.97
2019-01-03T21:07:04.801Z,3.33
2019-01-03T21:09:33.071Z,5.40
2019-01-03T21:12:01.375Z,6.17
2019-01-03T21:14:29.645Z,3.57
2019-01-03T21:16:58.008Z,6.03
2019-01-03T21:19:26.280Z,7.20
2019-01-03T21:21:54.555Z,7.07
2019-01-03T21:24:22.865Z,6.60
2019-01-03T21:26:51.165Z,6.23
2019-01-03T21:29:19.516Z,5.43
2019-01-03T21:31:47.898Z,7.05
2019-01-03T21:34:16.280Z,6.23
2019-01-03T21:36:44.636Z,3.87
2019-01-03T21:39:12.952Z,5.37
2019-01-03T21:41:41.227Z,9.20
2019-01-03T21:44:09.496Z,9.80
2019-01-03T21:46:37.857Z,5.13
2019-01-03T21:49:06.166Z,15.40
2019-01-03T21:51:34.461Z,17.13
2019-01-03T21:54:02.841Z,12.23
2019-01-03T21:56:31.104Z,12.67
2019-01-03T21:58:59.396Z,7.93
2019-01-03T22:01:27.758Z,16.03
2019-01-03T22:03:56.083Z,16.60
2019-01-03T22:06:24.422Z,25.90
2019-01-03T22:09:12.261Z,7.07
2019-01-03T22:11:40.546Z,26.67
2019-01-03T22:14:08.891Z,12.10
2019-01-03T22:16:37.252Z,4.93
2019-01-03T22:19:05.635Z,7.67
2019-01-03T22:21:33.901Z,17.37
2019-01-03T22:24:02.180Z,13.83
2019-01-03T22:26:30.555Z,26.00
2019-01-03T22:28:58.874Z,19.57
2019-01-03T22:31:27.149Z,13.40
2019-01-03T22:33:55.475Z,9.47
2019-01-03T22:36:23.819Z,8.13
2019-01-03T22:38:52.086Z,4.23
2019-01-03T22:41:20.461Z,3.90
2019-01-03T22:43:48.804Z,3.20
2019-01-03T22:46:17.065Z,3.43
2019-01-03T22:48:45.409Z,2.57
2019-01-03T22:51:19.939Z,3.13
2019-01-03T22:53:43.722Z,5.30
2019-01-03T22:56:11.989Z,10.40
2019-01-03T22:58:40.275Z,7.03
2019-01-03T23:01:08.829Z,4.00
2019-01-03T23:03:37.207Z,4.43
2019-01-03T23:06:05.470Z,2.83
2019-01-03T23:08:33.747Z,3.03
2019-01-03T23:11:02.017Z,2.90
2019-01-03T23:13:30.300Z,3.33
2019-01-03T23:15:58.708Z,3.20
2019-01-03T23:18:31.385Z,3.97
2019-01-03T23:20:56.974Z,3.93
2019-01-03T23:23:25.251Z,3.40
2019-01-03T23:25:53.518Z,3.53
2019-01-03T23:28:21.799Z,4.10
2019-01-03T23:30:50.078Z,4.23
2019-01-03T23:33:18.360Z,4.53
2019-01-03T23:35:46.659Z,4.43
2019-01-03T23:38:14.938Z,4.87
2019-01-03T23:40:43.299Z,5.13
2019-01-03T23:43:11.740Z,4.10
2019-01-03T23:45:40.097Z,4.10
2019-01-03T23:48:08.390Z,5.23
2019-01-03T23:50:36.773Z,4.40
2019-01-03T23:53:05.052Z,4.97
2019-01-03T23:55:33.387Z,3.53
2019-01-03T23:58:01.672Z,4.67
